createdAt,value
2022-09-24T00:01:38.790Z,75.70
2022-09-24T00:04:08.535Z,75.72
2022-09-24T00:06:41.083Z,75.46
2022-09-24T00:09:07.924Z,75.62
2022-09-24T00:11:35.852Z,75.77
2022-09-24T00:14:02.578Z,75.38
2022-09-24T00:16:31.854Z,75.35
2022-09-24T00:18:59.576Z,75.30
2022-09-24T00:21:31.704Z,75.16
2022-09-24T00:24:02.861Z,75.22
2022-09-24T00:26:48.199Z,75.12
2022-09-24T00:29:21.600Z,75.04
2022-09-24T00:31:50.111Z,75.05
2022-09-24T00:34:18.266Z,75.15
2022-09-24T00:36:46.936Z,75.25
2022-09-24T00:39:14.423Z,75.34
2022-09-24T00:41:45.450Z,75.31
2022-09-24T00:44:40.902Z,75.42
2022-09-24T00:47:31.815Z,75.47
2022-09-24T00:50:06.238Z,75.35
2022-09-24T00:52:44.946Z,75.28
2022-09-24T00:55:13.025Z,75.27
2022-09-24T00:57:42.068Z,75.28
2022-09-24T01:00:09.450Z,75.23
2022-09-24T01:02:39.261Z,75.40
2022-09-24T01:05:06.234Z,75.32
2022-09-24T01:07:33.004Z,75.47
2022-09-24T01:09:59.810Z,75.57
2022-09-24T01:12:37.883Z,75.82
2022-09-24T01:15:25.035Z,75.75
2022-09-24T01:18:12.267Z,75.95
2022-09-24T01:20:46.421Z,75.88
2022-09-24T01:23:31.858Z,75.92
2022-09-24T01:26:32.398Z,76.04
2022-09-24T01:29:19.153Z,76.09
2022-09-24T01:31:53.422Z,76.30
2022-09-24T01:34:27.117Z,76.46
2022-09-24T01:36:59.882Z,76.41
2022-09-24T01:39:27.509Z,76.46
2022-09-24T01:41:54.872Z,76.91
2022-09-24T01:44:21.759Z,76.66
2022-09-24T01:46:50.266Z,76.84
2022-09-24T01:49:18.097Z,77.04
2022-09-24T01:51:52.648Z,76.84
2022-09-24T01:54:28.447Z,76.95
2022-09-24T01:57:07.830Z,77.04
2022-09-24T01:59:54.157Z,77.13
2022-09-24T02:02:31.089Z,77.27
2022-09-24T02:05:26.860Z,77.51
2022-09-24T02:08:18.636Z,77.29
2022-09-24T02:10:57.759Z,77.62
2022-09-24T02:13:28.972Z,77.53
2022-09-24T02:16:00.755Z,77.58
2022-09-24T02:18:36.452Z,77.66
2022-09-24T02:21:07.866Z,77.70
2022-09-24T02:23:38.639Z,77.68
2022-09-24T02:26:06.189Z,77.87
2022-09-24T02:28:34.261Z,78.00
2022-09-24T02:31:14.656Z,78.12
2022-09-24T02:34:04.386Z,78.14
2022-09-24T02:36:32.012Z,78.20
2022-09-24T02:38:59.412Z,78.26
2022-09-24T02:41:27.164Z,78.34
2022-09-24T02:43:54.075Z,78.44
2022-09-24T02:46:20.834Z,78.46
2022-09-24T02:48:47.612Z,78.36
2022-09-24T02:51:14.678Z,78.53
2022-09-24T02:53:41.701Z,78.52
2022-09-24T02:56:08.669Z,78.61
2022-09-24T02:58:37.613Z,78.72
2022-09-24T03:01:05.434Z,78.79
2022-09-24T03:03:32.840Z,78.94
2022-09-24T03:06:00.906Z,78.87
2022-09-24T03:08:27.591Z,78.88
2022-09-24T03:10:56.225Z,78.99
2022-09-24T03:13:23.549Z,78.95
2022-09-24T03:15:50.434Z,79.10
2022-09-24T03:18:17.454Z,79.10
2022-09-24T03:20:44.213Z,79.05
2022-09-24T03:23:10.895Z,79.21
2022-09-24T03:25:37.578Z,79.29
2022-09-24T03:28:04.263Z,79.25
2022-09-24T03:30:49.751Z,79.40
2022-09-24T03:33:16.580Z,79.42
2022-09-24T03:35:43.292Z,79.58
2022-09-24T03:38:10.034Z,79.73
2022-09-24T03:40:36.908Z,79.76
2022-09-24T03:43:05.256Z,79.78
2022-09-24T03:45:32.031Z,79.87
2022-09-24T03:47:58.722Z,79.85
2022-09-24T03:50:26.022Z,80.01
2022-09-24T03:52:53.727Z,79.94
2022-09-24T03:55:20.467Z,80.11
2022-09-24T03:57:47.183Z,80.14
2022-09-24T04:00:14.308Z,80.24
2022-09-24T04:02:41.270Z,80.22
2022-09-24T04:05:08.397Z,80.34
2022-09-24T04:07:35.094Z,80.35
2022-09-24T04:10:01.899Z,80.36
2022-09-24T04:12:29.767Z,80.44
2022-09-24T04:14:56.679Z,80.58
2022-09-24T04:17:23.399Z,80.49
2022-09-24T04:19:51.122Z,80.57
2022-09-24T04:22:29.185Z,80.69
2022-09-24T04:24:59.025Z,80.85
2022-09-24T04:27:25.699Z,80.88
2022-09-24T04:29:54.348Z,81.22
2022-09-24T04:32:22.590Z,81.29
2022-09-24T04:34:49.495Z,81.23
2022-09-24T04:37:16.185Z,81.37
2022-09-24T04:39:42.897Z,81.25
2022-09-24T04:42:09.569Z,81.33
2022-09-24T04:44:39.124Z,81.61
2022-09-24T04:47:07.686Z,81.50
2022-09-24T04:49:34.421Z,81.57
2022-09-24T04:52:01.687Z,81.74
2022-09-24T04:54:29.332Z,81.71
2022-09-24T04:56:56.056Z,81.78
2022-09-24T04:59:23.366Z,81.93
2022-09-24T05:01:50.399Z,81.85
2022-09-24T05:04:18.134Z,81.75
2022-09-24T05:06:44.818Z,81.78
2022-09-24T05:09:12.757Z,81.93
2022-09-24T05:11:39.636Z,81.94
2022-09-24T05:14:06.353Z,81.99
2022-09-24T05:16:33.067Z,82.38
2022-09-24T05:18:59.941Z,82.16
2022-09-24T05:21:26.908Z,82.21
2022-09-24T05:23:55.130Z,82.40
2022-09-24T05:26:40.448Z,82.46
2022-09-24T05:29:07.216Z,82.37
2022-09-24T05:31:34.078Z,82.46
2022-09-24T05:34:00.815Z,82.62
2022-09-24T05:36:27.554Z,82.80
2022-09-24T05:38:54.231Z,82.89
2022-09-24T05:41:21.649Z,82.87
2022-09-24T05:43:49.411Z,82.97
2022-09-24T05:46:17.266Z,82.86
2022-09-24T05:48:44.013Z,82.88
2022-09-24T05:51:10.714Z,82.91
2022-09-24T05:53:37.421Z,82.94
2022-09-24T05:56:04.279Z,82.93
2022-09-24T05:58:31.750Z,82.95
2022-09-24T06:01:04.414Z,83.01
2022-09-24T06:03:31.866Z,82.99
2022-09-24T06:06:04.941Z,83.00
2022-09-24T06:08:35.371Z,82.89
2022-09-24T06:11:06.951Z,83.26
2022-09-24T06:13:35.076Z,83.18
2022-09-24T06:16:04.460Z,83.23
2022-09-24T06:18:33.472Z,83.38
2022-09-24T06:21:05.114Z,83.42
2022-09-24T06:23:31.990Z,83.25
2022-09-24T06:25:58.993Z,83.27
2022-09-24T06:28:25.783Z,83.32
2022-09-24T06:30:53.501Z,83.44
2022-09-24T06:33:21.156Z,83.29
2022-09-24T06:35:48.574Z,83.32
2022-09-24T06:38:18.220Z,83.33
2022-09-24T06:40:47.088Z,83.37
2022-09-24T06:43:14.494Z,83.60
2022-09-24T06:45:44.694Z,83.62
2022-09-24T06:48:13.607Z,83.69
2022-09-24T06:50:43.352Z,83.78
2022-09-24T06:53:11.005Z,83.95
2022-09-24T06:55:39.378Z,83.60
2022-09-24T06:58:08.777Z,83.82
2022-09-24T07:00:36.915Z,83.82
2022-09-24T07:03:05.819Z,83.93
2022-09-24T07:05:40.916Z,83.88
2022-09-24T07:08:10.059Z,83.79
2022-09-24T07:10:37.963Z,83.92
2022-09-24T07:13:05.726Z,84.17
2022-09-24T07:15:32.378Z,84.22
2022-09-24T07:17:59.180Z,84.30
2022-09-24T07:20:29.330Z,84.02
2022-09-24T07:22:56.427Z,83.99
2022-09-24T07:25:23.319Z,84.00
2022-09-24T07:27:50.191Z,83.96
2022-09-24T07:30:19.235Z,83.89
2022-09-24T07:32:45.977Z,83.92
2022-09-24T07:35:12.688Z,83.77
2022-09-24T07:37:39.421Z,83.73
2022-09-24T07:40:06.646Z,83.58
2022-09-24T07:42:33.475Z,83.66
2022-09-24T07:45:00.982Z,83.55
2022-09-24T07:47:27.697Z,83.51
2022-09-24T07:49:54.460Z,83.46
2022-09-24T07:52:21.216Z,83.53
2022-09-24T07:54:48.055Z,83.27
2022-09-24T07:57:14.791Z,83.20
2022-09-24T07:59:42.071Z,83.21
2022-09-24T08:02:16.923Z,83.32
2022-09-24T08:04:44.663Z,83.21
2022-09-24T08:07:13.120Z,83.09
2022-09-24T08:09:39.905Z,82.88
2022-09-24T08:12:08.048Z,82.88
2022-09-24T08:14:35.072Z,82.83
2022-09-24T08:17:02.851Z,82.74
2022-09-24T08:19:31.056Z,82.66
2022-09-24T08:22:00.791Z,82.53
2022-09-24T08:24:31.931Z,82.22
2022-09-24T08:26:58.839Z,82.47
2022-09-24T08:29:25.561Z,82.28
2022-09-24T08:31:52.944Z,82.30
2022-09-24T08:34:19.645Z,82.16
2022-09-24T08:36:46.386Z,82.15
2022-09-24T08:39:13.838Z,82.17
2022-09-24T08:41:53.847Z,82.04
2022-09-24T08:45:00.474Z,81.87
2022-09-24T08:47:55.184Z,81.94
2022-09-24T08:50:26.576Z,81.91
2022-09-24T08:53:13.321Z,81.78
2022-09-24T08:55:46.168Z,81.41
2022-09-24T08:58:46.708Z,81.56
2022-09-24T09:01:17.283Z,81.50
2022-09-24T09:04:12.951Z,81.34
2022-09-24T09:07:05.220Z,81.13
2022-09-24T09:09:47.101Z,81.35
2022-09-24T09:12:30.972Z,81.18
2022-09-24T09:15:21.737Z,81.20
2022-09-24T09:17:59.016Z,80.68
2022-09-24T09:20:52.692Z,80.40
2022-09-24T09:23:22.155Z,80.40
2022-09-24T09:25:54.735Z,78.34
2022-09-24T09:28:21.680Z,77.51
2022-09-24T09:30:58.974Z,75.67
2022-09-24T09:33:40.727Z,75.71
2022-09-24T09:36:37.440Z,73.29
2022-09-24T09:39:37.256Z,70.26
2022-09-24T09:42:19.051Z,67.08
2022-09-24T09:44:46.277Z,64.36
2022-09-24T09:47:19.323Z,62.06
2022-09-24T09:49:48.896Z,59.93
2022-09-24T09:52:21.321Z,60.19
2022-09-24T09:54:48.799Z,58.99
2022-09-24T09:57:24.136Z,59.76
2022-09-24T09:59:53.557Z,57.95
2022-09-24T10:02:34.080Z,57.98
2022-09-24T10:05:06.266Z,58.74
2022-09-24T10:07:43.903Z,59.16
2022-09-24T10:10:18.569Z,59.29
2022-09-24T10:12:45.459Z,58.29
2022-09-24T10:15:24.789Z,58.61
2022-09-24T10:17:55.296Z,58.96
2022-09-24T10:20:29.159Z,59.15
2022-09-24T10:23:02.688Z,59.74
2022-09-24T10:25:31.511Z,60.51
2022-09-24T10:28:20.237Z,60.99
2022-09-24T10:31:30.706Z,61.09
2022-09-24T10:34:02.949Z,61.66
2022-09-24T10:36:35.001Z,61.87
2022-09-24T10:39:22.907Z,62.07
2022-09-24T10:41:53.088Z,62.50
2022-09-24T10:44:21.649Z,62.63
2022-09-24T10:46:57.294Z,61.11
2022-09-24T10:49:38.893Z,60.63
2022-09-24T10:52:30.103Z,60.96
2022-09-24T10:55:02.456Z,61.77
2022-09-24T10:57:45.838Z,61.72
2022-09-24T11:00:22.586Z,60.12
2022-09-24T11:03:00.772Z,59.28
2022-09-24T11:05:45.353Z,59.42
2022-09-24T11:08:33.018Z,59.91
2022-09-24T11:11:15.807Z,60.47
2022-09-24T11:13:51.745Z,61.17
2022-09-24T11:16:28.182Z,61.40
2022-09-24T11:18:54.864Z,61.86
2022-09-24T11:21:28.997Z,62.35
2022-09-24T11:24:32.547Z,62.82
2022-09-24T11:27:05.064Z,62.87
2022-09-24T11:29:51.815Z,62.54
2022-09-24T11:32:21.325Z,62.49
2022-09-24T11:34:54.640Z,62.53
2022-09-24T11:37:42.644Z,62.80
2022-09-24T11:40:20.897Z,62.75
2022-09-24T11:42:57.057Z,62.86
2022-09-24T11:45:45.613Z,62.52
2022-09-24T11:48:25.848Z,62.84
2022-09-24T11:50:55.262Z,62.98
2022-09-24T11:53:49.837Z,62.56
2022-09-24T11:56:44.609Z,62.55
2022-09-24T11:59:24.232Z,62.57
2022-09-24T12:01:57.642Z,62.75
2022-09-24T12:04:45.719Z,62.64
2022-09-24T12:07:20.304Z,62.17
2022-09-24T12:09:58.841Z,61.95
2022-09-24T12:12:37.607Z,61.76
2022-09-24T12:15:13.370Z,61.49
2022-09-24T12:18:06.438Z,61.39
2022-09-24T12:20:45.375Z,61.11
2022-09-24T12:23:17.505Z,60.85
2022-09-24T12:25:49.313Z,60.39
2022-09-24T12:28:39.082Z,60.44
2022-09-24T12:31:41.968Z,60.47
2022-09-24T12:34:24.773Z,60.60
2022-09-24T12:37:07.521Z,60.29
2022-09-24T12:40:11.001Z,60.35
2022-09-24T12:42:44.862Z,60.06
2022-09-24T12:45:17.779Z,60.24
2022-09-24T12:47:52.084Z,59.52
2022-09-24T12:50:27.574Z,59.16
2022-09-24T12:52:58.053Z,59.10
2022-09-24T12:55:30.584Z,59.25
2022-09-24T12:58:00.331Z,59.36
2022-09-24T13:00:45.664Z,59.36
2022-09-24T13:03:35.979Z,59.69
2022-09-24T13:06:17.627Z,58.81
2022-09-24T13:08:44.412Z,58.62
2022-09-24T13:11:26.188Z,58.65
2022-09-24T13:14:21.957Z,58.46
2022-09-24T13:16:51.199Z,59.00
2022-09-24T13:19:31.219Z,59.14
2022-09-24T13:22:00.623Z,58.83
2022-09-24T13:24:47.632Z,58.53
2022-09-24T13:27:32.289Z,58.14
2022-09-24T13:30:05.226Z,58.30
2022-09-24T13:32:37.285Z,58.24
2022-09-24T13:35:09.671Z,58.43
2022-09-24T13:37:41.713Z,58.68
2022-09-24T13:40:21.798Z,58.56
2022-09-24T13:42:57.301Z,58.21
2022-09-24T13:45:24.908Z,57.96
2022-09-24T13:47:53.652Z,57.78
2022-09-24T13:50:29.308Z,57.29
2022-09-24T13:53:08.922Z,56.88
2022-09-24T13:55:43.217Z,56.53
2022-09-24T13:58:31.422Z,56.17
2022-09-24T14:01:01.406Z,56.04
2022-09-24T14:03:33.809Z,55.85
2022-09-24T14:06:19.275Z,55.54
2022-09-24T14:08:47.611Z,54.64
2022-09-24T14:11:26.407Z,54.61
2022-09-24T14:13:55.203Z,54.25
2022-09-24T14:16:26.107Z,53.65
2022-09-24T14:19:04.446Z,53.44
2022-09-24T14:21:44.352Z,53.78
2022-09-24T14:24:20.557Z,53.59
2022-09-24T14:26:54.013Z,54.28
2022-09-24T14:29:27.643Z,54.27
2022-09-24T14:31:58.594Z,54.85
2022-09-24T14:34:35.235Z,55.21
2022-09-24T14:37:23.653Z,54.97
2022-09-24T14:39:57.564Z,54.65
2022-09-24T14:42:30.319Z,54.18
2022-09-24T14:44:57.530Z,54.17
2022-09-24T14:47:30.980Z,53.68
2022-09-24T14:49:57.936Z,53.49
2022-09-24T14:52:37.752Z,53.10
2022-09-24T14:55:17.723Z,53.31
2022-09-24T14:57:49.123Z,52.69
2022-09-24T15:00:20.908Z,52.21
2022-09-24T15:02:55.969Z,52.15
2022-09-24T15:05:27.868Z,52.45
2022-09-24T15:08:08.120Z,52.69
2022-09-24T15:10:35.072Z,52.16
2022-09-24T15:13:12.985Z,52.15
2022-09-24T15:15:40.131Z,51.74
2022-09-24T15:18:11.522Z,51.14
2022-09-24T15:20:38.733Z,51.44
2022-09-24T15:23:05.707Z,51.53
2022-09-24T15:25:32.452Z,51.78
2022-09-24T15:27:59.439Z,51.75
2022-09-24T15:30:26.245Z,51.50
2022-09-24T15:32:52.935Z,51.79
2022-09-24T15:35:19.865Z,52.15
2022-09-24T15:37:46.883Z,52.42
2022-09-24T15:40:22.698Z,52.73
2022-09-24T15:42:51.061Z,52.97
2022-09-24T15:45:22.758Z,53.20
2022-09-24T15:47:53.166Z,53.69
2022-09-24T15:50:22.035Z,53.56
2022-09-24T15:53:13.297Z,53.35
2022-09-24T15:55:40.068Z,52.94
2022-09-24T15:58:19.084Z,53.28
2022-09-24T16:00:46.656Z,52.98
2022-09-24T16:03:23.745Z,53.09
2022-09-24T16:05:50.480Z,53.54
2022-09-24T16:08:17.654Z,53.58
2022-09-24T16:10:47.030Z,53.64
2022-09-24T16:13:15.692Z,53.55
2022-09-24T16:15:42.541Z,54.24
2022-09-24T16:18:14.922Z,54.51
2022-09-24T16:20:43.059Z,54.61
2022-09-24T16:23:14.799Z,54.21
2022-09-24T16:25:59.421Z,54.19
2022-09-24T16:28:27.777Z,54.41
2022-09-24T16:30:55.260Z,54.90
2022-09-24T16:33:22.594Z,55.27
2022-09-24T16:35:49.627Z,55.41
2022-09-24T16:38:22.566Z,55.91
2022-09-24T16:40:59.754Z,56.12
2022-09-24T16:43:26.491Z,56.56
2022-09-24T16:45:53.275Z,57.38
2022-09-24T16:48:19.996Z,57.85
2022-09-24T16:50:48.929Z,58.79
2022-09-24T16:53:16.647Z,58.64
2022-09-24T16:55:43.371Z,59.12
2022-09-24T16:58:10.845Z,59.75
2022-09-24T17:00:42.402Z,59.79
2022-09-24T17:03:11.331Z,59.87
2022-09-24T17:05:40.719Z,59.78
2022-09-24T17:08:07.456Z,59.82
2022-09-24T17:10:34.228Z,59.47
2022-09-24T17:13:02.292Z,59.41
2022-09-24T17:15:29.077Z,59.76
2022-09-24T17:17:55.807Z,59.86
2022-09-24T17:20:22.495Z,60.11
2022-09-24T17:22:49.900Z,60.41
2022-09-24T17:25:16.704Z,60.50
2022-09-24T17:27:44.973Z,60.70
2022-09-24T17:30:12.071Z,60.64
2022-09-24T17:32:38.803Z,60.84
2022-09-24T17:35:08.180Z,60.96
2022-09-24T17:37:34.972Z,60.77
2022-09-24T17:40:04.348Z,60.95
2022-09-24T17:42:32.242Z,61.07
2022-09-24T17:44:59.010Z,61.36
2022-09-24T17:47:45.636Z,61.50
2022-09-24T17:50:12.311Z,61.55
2022-09-24T17:52:38.980Z,61.60
2022-09-24T17:55:08.949Z,61.49
2022-09-24T17:57:38.338Z,61.53
2022-09-24T18:00:06.131Z,61.49
2022-09-24T18:02:32.938Z,61.41
2022-09-24T18:04:59.699Z,61.41
2022-09-24T18:07:26.481Z,61.59
2022-09-24T18:09:56.203Z,61.54
2022-09-24T18:12:23.108Z,61.51
2022-09-24T18:14:49.785Z,61.68
2022-09-24T18:17:16.509Z,61.64
2022-09-24T18:19:43.169Z,61.76
2022-09-24T18:22:11.453Z,61.53
2022-09-24T18:24:38.260Z,61.50
2022-09-24T18:27:05.298Z,61.22
2022-09-24T18:29:32.129Z,61.19
2022-09-24T18:31:58.941Z,61.23
2022-09-24T18:34:25.640Z,61.05
2022-09-24T18:36:52.310Z,61.36
2022-09-24T18:39:24.655Z,61.16
2022-09-24T18:41:52.201Z,61.44
2022-09-24T18:44:19.806Z,61.49
2022-09-24T18:46:49.950Z,61.55
2022-09-24T18:49:17.499Z,61.54
2022-09-24T18:51:44.243Z,61.39
2022-09-24T18:54:14.812Z,61.50
2022-09-24T18:56:43.624Z,61.46
2022-09-24T18:59:13.099Z,61.57
2022-09-24T19:01:42.351Z,61.79
2022-09-24T19:04:10.897Z,61.42
2022-09-24T19:06:40.278Z,61.55
2022-09-24T19:09:09.195Z,61.54
2022-09-24T19:11:37.077Z,61.44
2022-09-24T19:14:05.588Z,61.68
2022-09-24T19:16:32.551Z,61.81
2022-09-24T19:19:01.055Z,61.80
2022-09-24T19:21:28.325Z,61.80
2022-09-24T19:23:57.218Z,62.08
2022-09-24T19:26:26.933Z,61.87
2022-09-24T19:28:54.100Z,62.01
2022-09-24T19:31:24.534Z,62.29
2022-09-24T19:33:53.024Z,62.09
2022-09-24T19:36:21.570Z,62.36
2022-09-24T19:38:51.178Z,62.29
2022-09-24T19:41:25.182Z,62.40
2022-09-24T19:43:57.083Z,62.79
2022-09-24T19:46:25.671Z,62.70
2022-09-24T19:48:54.864Z,62.66
2022-09-24T19:51:24.825Z,62.99
2022-09-24T19:53:53.840Z,62.86
2022-09-24T19:56:23.475Z,62.98
2022-09-24T19:58:53.246Z,63.03
2022-09-24T20:01:21.458Z,63.15
2022-09-24T20:03:48.541Z,63.31
2022-09-24T20:06:18.756Z,63.29
2022-09-24T20:08:46.813Z,63.40
2022-09-24T20:11:18.274Z,63.65
2022-09-24T20:13:48.535Z,63.60
2022-09-24T20:16:23.750Z,63.47
2022-09-24T20:18:54.578Z,63.71
2022-09-24T20:21:21.680Z,63.55
2022-09-24T20:23:48.847Z,63.93
2022-09-24T20:26:36.178Z,64.00
2022-09-24T20:29:02.968Z,64.19
2022-09-24T20:31:30.314Z,64.34
2022-09-24T20:33:57.291Z,64.22
2022-09-24T20:36:24.937Z,64.51
2022-09-24T20:38:53.482Z,64.43
2022-09-24T20:41:22.806Z,64.89
2022-09-24T20:43:50.536Z,65.08
2022-09-24T20:46:24.455Z,65.30
2022-09-24T20:48:58.259Z,65.67
2022-09-24T20:51:27.320Z,65.67
2022-09-24T20:53:54.730Z,65.91
2022-09-24T20:56:22.158Z,65.89
2022-09-24T20:58:50.960Z,66.11
2022-09-24T21:01:17.979Z,66.19
2022-09-24T21:03:45.787Z,66.27
2022-09-24T21:06:15.107Z,66.60
2022-09-24T21:08:44.279Z,66.66
2022-09-24T21:11:20.996Z,66.75
2022-09-24T21:13:53.023Z,66.75
2022-09-24T21:16:21.750Z,66.82
2022-09-24T21:18:49.900Z,66.85
2022-09-24T21:21:21.986Z,67.03
2022-09-24T21:23:50.776Z,67.01
2022-09-24T21:26:25.806Z,67.26
2022-09-24T21:28:55.720Z,67.42
2022-09-24T21:31:24.873Z,67.52
2022-09-24T21:33:53.395Z,67.52
2022-09-24T21:36:26.384Z,67.64
2022-09-24T21:39:01.076Z,67.76
2022-09-24T21:41:33.147Z,67.68
2022-09-24T21:44:00.533Z,67.76
2022-09-24T21:46:31.370Z,67.93
2022-09-24T21:48:59.429Z,67.85
2022-09-24T21:51:27.568Z,67.95
2022-09-24T21:54:00.339Z,68.00
2022-09-24T21:56:27.215Z,68.11
2022-09-24T21:58:54.788Z,68.28
2022-09-24T22:01:27.853Z,68.30
2022-09-24T22:03:57.513Z,68.46
2022-09-24T22:06:28.608Z,68.55
2022-09-24T22:09:02.590Z,68.53
2022-09-24T22:11:29.527Z,68.93
2022-09-24T22:14:01.254Z,68.84
2022-09-24T22:16:29.692Z,68.77
2022-09-24T22:18:56.826Z,69.30
2022-09-24T22:21:23.589Z,68.89
2022-09-24T22:23:50.844Z,69.00
2022-09-24T22:26:18.723Z,68.96
2022-09-24T22:28:46.371Z,69.09
2022-09-24T22:31:15.572Z,69.15
2022-09-24T22:34:00.959Z,69.03
2022-09-24T22:36:29.767Z,68.99
2022-09-24T22:38:57.890Z,69.23
2022-09-24T22:41:25.278Z,69.19
2022-09-24T22:43:52.578Z,69.31
2022-09-24T22:46:20.076Z,69.22
2022-09-24T22:48:47.701Z,69.34
2022-09-24T22:51:14.867Z,69.41
2022-09-24T22:53:41.920Z,69.60
2022-09-24T22:56:14.245Z,69.78
2022-09-24T22:58:43.382Z,69.77
2022-09-24T23:01:13.745Z,69.95
2022-09-24T23:03:41.149Z,69.97
2022-09-24T23:06:08.714Z,69.98
2022-09-24T23:08:36.831Z,69.94
2022-09-24T23:11:11.943Z,69.96
2022-09-24T23:13:40.167Z,70.25
2022-09-24T23:16:17.667Z,70.38
2022-09-24T23:18:46.820Z,70.30
2022-09-24T23:21:16.105Z,70.48
2022-09-24T23:23:44.464Z,70.76
2022-09-24T23:26:18.241Z,70.56
2022-09-24T23:28:53.372Z,70.60
2022-09-24T23:31:27.442Z,70.73
2022-09-24T23:33:55.946Z,70.84
2022-09-24T23:36:23.755Z,70.96
2022-09-24T23:38:50.471Z,70.91
2022-09-24T23:41:17.325Z,71.00
2022-09-24T23:43:44.255Z,71.04
2022-09-24T23:46:11.528Z,71.10
2022-09-24T23:48:38.694Z,71.23
2022-09-24T23:51:07.286Z,71.31
2022-09-24T23:53:35.252Z,71.39
2022-09-24T23:56:03.694Z,71.53
2022-09-24T23:58:30.699Z,71.41
